createdAt,value
2019-03-13T00:01:29.803Z,0.60
2019-03-13T00:03:58.611Z,0.30
2019-03-13T00:06:27.403Z,0.67
2019-03-13T00:08:56.215Z,0.30
2019-03-13T00:11:25.007Z,0.30
2019-03-13T00:13:53.742Z,0.50
2019-03-13T00:16:22.789Z,0.87
2019-03-13T00:18:51.510Z,0.50
2019-03-13T00:21:20.299Z,0.30
2019-03-13T00:23:49.087Z,0.30
2019-03-13T00:26:17.818Z,1.12
2019-03-13T00:28:46.548Z,0.47
2019-03-13T00:31:15.345Z,0.50
2019-03-13T00:33:44.097Z,0.97
2019-03-13T00:36:12.816Z,0.60
2019-03-13T00:38:41.544Z,0.30
2019-03-13T00:41:10.350Z,1.30
2019-03-13T00:43:42.044Z,0.47
2019-03-13T00:46:10.950Z,0.50
2019-03-13T00:48:39.676Z,0.53
2019-03-13T00:51:08.403Z,1.53
2019-03-13T00:53:37.121Z,0.40
2019-03-13T00:56:05.926Z,0.43
2019-03-13T00:58:36.226Z,1.02
2019-03-13T01:01:22.916Z,1.37
2019-03-13T01:04:10.724Z,0.62
2019-03-13T01:06:42.251Z,1.00
2019-03-13T01:09:11.039Z,1.13
2019-03-13T01:11:39.751Z,1.47
2019-03-13T01:14:08.489Z,0.50
2019-03-13T01:16:37.318Z,0.67
2019-03-13T01:19:06.287Z,0.93
2019-03-13T01:21:35.020Z,0.60
2019-03-13T01:24:04.020Z,1.32
2019-03-13T01:26:32.760Z,2.60
2019-03-13T01:29:02.432Z,1.27
2019-03-13T01:31:49.287Z,2.43
2019-03-13T01:34:25.930Z,0.73
2019-03-13T01:36:54.751Z,2.23
2019-03-13T01:39:23.456Z,0.60
2019-03-13T01:41:52.181Z,0.70
2019-03-13T01:44:20.916Z,1.65
2019-03-13T01:46:49.796Z,1.47
2019-03-13T01:49:19.193Z,2.33
2019-03-13T01:51:47.997Z,1.07
2019-03-13T01:54:16.783Z,1.13
2019-03-13T01:56:45.538Z,1.50
2019-03-13T01:59:14.335Z,1.50
2019-03-13T02:01:43.055Z,0.70
2019-03-13T02:04:11.796Z,1.90
2019-03-13T02:06:40.552Z,1.87
2019-03-13T02:09:09.436Z,2.30
2019-03-13T02:11:38.166Z,0.57
2019-03-13T02:14:06.974Z,1.63
2019-03-13T02:16:35.860Z,0.57
2019-03-13T02:19:04.577Z,1.53
2019-03-13T02:21:33.320Z,2.20
2019-03-13T02:24:02.042Z,0.87
2019-03-13T02:26:30.822Z,2.90
2019-03-13T02:28:59.611Z,2.00
2019-03-13T02:31:28.409Z,0.93
2019-03-13T02:33:57.210Z,3.27
2019-03-13T02:36:25.928Z,0.70
2019-03-13T02:38:55.177Z,1.50
2019-03-13T02:41:23.913Z,1.70
2019-03-13T02:43:52.651Z,1.23
2019-03-13T02:46:21.369Z,3.60
2019-03-13T02:48:50.176Z,1.33
2019-03-13T02:51:18.898Z,1.13
2019-03-13T02:53:47.632Z,0.50
2019-03-13T02:56:16.358Z,0.75
2019-03-13T02:58:45.082Z,1.00
2019-03-13T03:01:48.066Z,2.63
2019-03-13T03:04:16.836Z,2.10
2019-03-13T03:06:45.605Z,2.50
2019-03-13T03:09:15.364Z,3.90
2019-03-13T03:11:44.229Z,2.10
2019-03-13T03:14:13.072Z,0.67
2019-03-13T03:16:41.835Z,1.83
2019-03-13T03:19:10.549Z,1.47
2019-03-13T03:21:39.341Z,0.70
2019-03-13T03:24:08.084Z,3.13
2019-03-13T03:26:36.804Z,3.37
2019-03-13T03:29:05.555Z,2.00
2019-03-13T03:31:35.164Z,1.37
2019-03-13T03:34:04.809Z,1.80
2019-03-13T03:36:33.656Z,2.63
2019-03-13T03:39:02.785Z,1.07
2019-03-13T03:41:31.555Z,2.27
2019-03-13T03:44:00.563Z,1.67
2019-03-13T03:46:29.361Z,1.70
2019-03-13T03:48:58.152Z,2.67
2019-03-13T03:51:26.864Z,0.97
2019-03-13T03:53:55.601Z,0.63
2019-03-13T03:56:24.396Z,2.47
2019-03-13T03:58:53.392Z,2.13
2019-03-13T04:01:22.113Z,2.83
2019-03-13T04:03:50.862Z,2.90
2019-03-13T04:06:19.963Z,2.00
2019-03-13T04:08:48.684Z,2.60
2019-03-13T04:11:17.590Z,3.67
2019-03-13T04:13:46.398Z,2.50
2019-03-13T04:16:15.119Z,3.07
2019-03-13T04:18:43.852Z,1.87
2019-03-13T04:21:12.570Z,3.03
2019-03-13T04:23:41.357Z,3.90
2019-03-13T04:26:12.784Z,3.90
2019-03-13T04:28:40.608Z,3.05
2019-03-13T04:31:09.340Z,4.33
2019-03-13T04:33:38.049Z,1.57
2019-03-13T04:36:06.779Z,1.17
2019-03-13T04:38:35.494Z,6.35
2019-03-13T04:41:04.307Z,2.60
2019-03-13T04:43:34.368Z,3.10
2019-03-13T04:46:03.094Z,1.80
2019-03-13T04:48:31.811Z,2.87
2019-03-13T04:51:00.532Z,4.13
2019-03-13T04:53:29.264Z,2.37
2019-03-13T04:55:57.988Z,2.83
2019-03-13T04:58:26.719Z,2.53
2019-03-13T05:00:55.528Z,2.25
2019-03-13T05:03:24.253Z,3.58
2019-03-13T05:05:55.915Z,4.47
2019-03-13T05:08:45.906Z,2.37
2019-03-13T05:11:14.655Z,2.30
2019-03-13T05:13:43.375Z,2.57
2019-03-13T05:16:12.109Z,2.33
2019-03-13T05:18:40.806Z,2.07
2019-03-13T05:21:09.544Z,7.00
2019-03-13T05:23:38.263Z,4.73
2019-03-13T05:26:06.995Z,2.03
2019-03-13T05:28:35.787Z,2.43
2019-03-13T05:31:04.663Z,6.57
2019-03-13T05:33:33.376Z,4.93
2019-03-13T05:36:02.104Z,2.30
2019-03-13T05:38:30.837Z,3.27
2019-03-13T05:40:59.634Z,4.90
2019-03-13T05:43:28.426Z,5.97
2019-03-13T05:45:57.176Z,5.13
2019-03-13T05:48:25.981Z,2.23
2019-03-13T05:50:54.700Z,5.33
2019-03-13T05:53:23.464Z,2.47
2019-03-13T05:55:52.269Z,6.07
2019-03-13T05:58:21.127Z,3.40
2019-03-13T06:00:49.839Z,3.83
2019-03-13T06:03:18.575Z,3.17
2019-03-13T06:05:47.436Z,3.90
2019-03-13T06:08:18.473Z,2.70
2019-03-13T06:10:46.631Z,4.43
2019-03-13T06:13:15.355Z,2.90
2019-03-13T06:15:47.057Z,5.17
2019-03-13T06:18:15.808Z,2.53
2019-03-13T06:20:44.549Z,1.97
2019-03-13T06:23:14.738Z,5.23
2019-03-13T06:25:43.436Z,3.60
2019-03-13T06:28:12.261Z,4.73
2019-03-13T06:30:40.989Z,4.80
2019-03-13T06:33:09.812Z,4.25
2019-03-13T06:35:38.609Z,2.33
2019-03-13T06:38:07.344Z,4.30
2019-03-13T06:40:36.069Z,4.30
2019-03-13T06:43:06.246Z,4.03
2019-03-13T06:45:35.060Z,8.23
2019-03-13T06:48:03.972Z,3.03
2019-03-13T06:50:32.682Z,5.50
2019-03-13T06:53:01.602Z,5.33
2019-03-13T06:55:30.319Z,4.28
2019-03-13T06:57:59.068Z,4.07
2019-03-13T07:00:52.923Z,4.20
2019-03-13T07:03:48.379Z,4.87
2019-03-13T07:06:51.267Z,5.20
2019-03-13T07:09:42.206Z,2.93
2019-03-13T07:12:24.004Z,5.80
2019-03-13T07:15:30.244Z,5.20
2019-03-13T07:18:33.128Z,6.53
2019-03-13T07:21:23.365Z,6.30
2019-03-13T07:24:06.773Z,5.23
2019-03-13T07:26:43.930Z,4.57
2019-03-13T07:29:25.344Z,2.50
2019-03-13T07:32:09.176Z,8.13
2019-03-13T07:34:59.847Z,3.17
2019-03-13T07:37:40.440Z,3.13
2019-03-13T07:40:31.882Z,5.67
2019-03-13T07:43:07.620Z,4.35
2019-03-13T07:45:58.537Z,7.60
2019-03-13T07:48:46.360Z,6.27
2019-03-13T07:51:25.778Z,3.35
2019-03-13T07:54:19.461Z,4.63
2019-03-13T07:57:07.288Z,7.90
2019-03-13T07:59:53.873Z,4.83
2019-03-13T08:02:35.808Z,6.12
2019-03-13T08:05:22.406Z,4.83
2019-03-13T08:08:22.424Z,4.70
2019-03-13T08:11:07.718Z,8.73
2019-03-13T08:13:53.079Z,7.23
2019-03-13T08:16:28.739Z,6.03
2019-03-13T08:19:14.120Z,5.57
2019-03-13T08:22:17.351Z,3.30
2019-03-13T08:25:08.398Z,6.13
2019-03-13T08:27:45.086Z,5.30
2019-03-13T08:30:23.005Z,2.27
2019-03-13T08:33:10.827Z,3.03
2019-03-13T08:36:14.101Z,3.83
2019-03-13T08:39:02.004Z,3.63
2019-03-13T08:41:52.948Z,6.27
2019-03-13T08:44:29.023Z,3.97
2019-03-13T08:47:03.658Z,7.37
2019-03-13T08:49:50.354Z,3.85
2019-03-13T08:52:38.193Z,4.20
2019-03-13T08:55:25.371Z,4.20
2019-03-13T08:58:08.668Z,4.80
2019-03-13T09:00:54.122Z,5.90
2019-03-13T09:03:29.590Z,2.47
2019-03-13T09:06:13.116Z,6.37
2019-03-13T09:08:51.744Z,5.37
2019-03-13T09:11:51.963Z,5.00
2019-03-13T09:14:42.792Z,8.55
2019-03-13T09:17:23.530Z,5.50
2019-03-13T09:20:23.447Z,3.13
2019-03-13T09:22:58.999Z,6.62
2019-03-13T09:25:39.357Z,5.07
2019-03-13T09:28:26.070Z,3.67
2019-03-13T09:31:04.782Z,7.23
2019-03-13T09:33:50.570Z,6.92
2019-03-13T09:36:29.939Z,5.57
2019-03-13T09:39:10.181Z,6.93
2019-03-13T09:41:50.840Z,4.58
2019-03-13T09:44:44.572Z,5.33
2019-03-13T09:47:19.929Z,3.93
2019-03-13T09:49:57.878Z,4.53
2019-03-13T09:52:54.774Z,5.07
2019-03-13T09:55:41.631Z,5.73
2019-03-13T09:58:38.070Z,6.63
2019-03-13T10:01:21.994Z,5.83
2019-03-13T10:03:57.250Z,7.07
2019-03-13T10:06:35.596Z,3.03
2019-03-13T10:09:14.595Z,2.80
2019-03-13T10:11:50.844Z,5.77
2019-03-13T10:14:43.607Z,5.97
2019-03-13T10:17:31.431Z,4.43
2019-03-13T10:20:26.501Z,3.50
2019-03-13T10:23:08.435Z,3.60
2019-03-13T10:25:50.018Z,3.60
2019-03-13T10:28:27.836Z,5.05
2019-03-13T10:31:22.020Z,4.60
2019-03-13T10:34:17.129Z,5.83
2019-03-13T10:37:04.290Z,5.90
2019-03-13T10:39:58.377Z,7.72
2019-03-13T10:42:40.633Z,5.03
2019-03-13T10:45:31.508Z,6.47
2019-03-13T10:48:22.399Z,3.17
2019-03-13T10:51:15.822Z,6.03
2019-03-13T10:53:48.470Z,3.70
2019-03-13T10:56:35.410Z,3.17
2019-03-13T10:59:23.488Z,7.03
2019-03-13T11:02:10.476Z,6.67
2019-03-13T11:05:05.366Z,5.97
2019-03-13T11:08:05.494Z,5.50
2019-03-13T11:10:57.518Z,6.15
2019-03-13T11:13:44.424Z,6.77
2019-03-13T11:16:31.101Z,4.63
2019-03-13T11:19:17.790Z,8.67
2019-03-13T11:22:11.705Z,3.10
2019-03-13T11:24:49.324Z,7.57
2019-03-13T11:27:46.070Z,8.67
2019-03-13T11:30:30.612Z,12.18
2019-03-13T11:33:08.873Z,4.00
2019-03-13T11:35:54.416Z,4.80
2019-03-13T11:38:42.048Z,6.57
2019-03-13T11:41:24.259Z,7.30
2019-03-13T11:44:07.477Z,7.20
2019-03-13T11:46:52.554Z,11.97
2019-03-13T11:49:46.735Z,7.53
2019-03-13T11:52:30.688Z,8.10
2019-03-13T11:55:17.162Z,7.93
2019-03-13T11:57:56.011Z,7.40
2019-03-13T12:00:39.754Z,6.47
2019-03-13T12:03:15.714Z,4.63
2019-03-13T12:05:58.724Z,6.23
2019-03-13T12:08:59.336Z,4.93
2019-03-13T12:11:47.153Z,5.83
2019-03-13T12:14:28.066Z,7.63
2019-03-13T12:17:10.812Z,6.60
2019-03-13T12:19:57.787Z,6.30
2019-03-13T12:22:39.741Z,2.77
2019-03-13T12:25:27.816Z,3.03
2019-03-13T12:28:07.188Z,4.55
2019-03-13T12:30:53.742Z,8.13
2019-03-13T12:33:35.674Z,3.60
2019-03-13T12:36:26.703Z,4.37
2019-03-13T12:39:30.999Z,5.40
2019-03-13T12:42:24.998Z,6.00
2019-03-13T12:45:20.777Z,4.13
2019-03-13T12:48:16.502Z,3.60
2019-03-13T12:50:56.750Z,6.57
2019-03-13T12:53:38.754Z,2.27
2019-03-13T12:56:23.082Z,4.87
2019-03-13T12:59:23.224Z,8.90
2019-03-13T13:02:10.173Z,4.53
2019-03-13T13:05:09.001Z,3.83
2019-03-13T13:07:49.745Z,3.47
2019-03-13T13:10:45.102Z,3.83
2019-03-13T13:13:38.666Z,4.47
2019-03-13T13:16:35.018Z,3.90
2019-03-13T13:19:04.865Z,3.37
2019-03-13T13:21:38.531Z,6.20
2019-03-13T13:24:10.458Z,2.67
2019-03-13T13:26:39.824Z,3.30
2019-03-13T13:29:12.486Z,2.37
2019-03-13T13:31:41.231Z,3.80
2019-03-13T13:34:13.236Z,5.37
2019-03-13T13:36:42.048Z,3.17
2019-03-13T13:39:10.780Z,2.10
2019-03-13T13:41:39.524Z,3.07
2019-03-13T13:44:08.337Z,0.87
2019-03-13T13:46:39.536Z,2.13
2019-03-13T13:49:08.361Z,2.97
2019-03-13T13:51:37.537Z,1.97
2019-03-13T13:54:06.833Z,2.98
2019-03-13T13:56:35.559Z,2.40
2019-03-13T13:59:04.475Z,2.05
2019-03-13T14:01:33.206Z,2.40
2019-03-13T14:04:01.941Z,3.50
2019-03-13T14:06:30.706Z,4.30
2019-03-13T14:08:59.443Z,3.03
2019-03-13T14:11:28.165Z,2.60
2019-03-13T14:13:56.915Z,1.70
2019-03-13T14:16:25.664Z,3.25
2019-03-13T14:18:54.398Z,2.60
2019-03-13T14:21:23.303Z,4.50
2019-03-13T14:23:52.123Z,2.37
2019-03-13T14:26:21.027Z,2.37
2019-03-13T14:28:49.763Z,3.43
2019-03-13T14:31:18.511Z,3.00
2019-03-13T14:33:47.239Z,3.40
2019-03-13T14:36:16.237Z,4.83
2019-03-13T14:38:44.996Z,3.22
2019-03-13T14:41:13.731Z,4.30
2019-03-13T14:43:43.132Z,5.23
2019-03-13T14:46:11.944Z,3.57
2019-03-13T14:48:40.685Z,4.10
2019-03-13T14:51:09.398Z,3.53
2019-03-13T14:53:38.131Z,4.00
2019-03-13T14:56:07.062Z,4.05
2019-03-13T14:58:35.795Z,3.67
2019-03-13T15:01:04.605Z,1.52
2019-03-13T15:03:33.494Z,4.70
2019-03-13T15:06:02.365Z,4.75
2019-03-13T15:08:31.184Z,3.47
2019-03-13T15:11:00.321Z,0.93
2019-03-13T15:13:29.057Z,3.17
2019-03-13T15:15:57.782Z,3.60
2019-03-13T15:18:26.513Z,2.43
2019-03-13T15:20:55.240Z,2.00
2019-03-13T15:23:24.021Z,2.50
2019-03-13T15:25:52.753Z,5.13
2019-03-13T15:28:21.504Z,5.37
2019-03-13T15:30:50.330Z,5.30
2019-03-13T15:33:20.169Z,3.77
2019-03-13T15:35:48.969Z,3.70
2019-03-13T15:38:17.699Z,5.70
2019-03-13T15:40:46.420Z,5.13
2019-03-13T15:43:15.174Z,6.20
2019-03-13T15:45:43.962Z,4.00
2019-03-13T15:48:12.700Z,10.00
2019-03-13T15:50:41.452Z,5.07
2019-03-13T15:53:10.187Z,3.37
2019-03-13T15:55:39.226Z,5.97
2019-03-13T15:58:08.100Z,4.00
2019-03-13T16:00:36.953Z,6.60
2019-03-13T16:03:07.947Z,3.00
2019-03-13T16:05:36.658Z,6.20
2019-03-13T16:08:05.529Z,2.27
2019-03-13T16:10:34.423Z,3.53
2019-03-13T16:13:04.751Z,3.10
2019-03-13T16:15:35.479Z,2.93
2019-03-13T16:18:04.651Z,4.83
2019-03-13T16:20:33.380Z,5.60
2019-03-13T16:23:02.332Z,5.20
2019-03-13T16:25:31.359Z,6.73
2019-03-13T16:28:00.893Z,3.98
2019-03-13T16:30:32.919Z,4.23
2019-03-13T16:33:01.720Z,3.37
2019-03-13T16:35:30.483Z,5.37
2019-03-13T16:37:59.210Z,6.45
2019-03-13T16:40:27.957Z,3.70
2019-03-13T16:42:56.724Z,4.00
2019-03-13T16:45:25.616Z,4.20
2019-03-13T16:47:54.450Z,1.93
2019-03-13T16:50:23.248Z,4.57
2019-03-13T16:52:52.331Z,7.50
2019-03-13T16:55:21.600Z,5.62
2019-03-13T16:57:50.351Z,8.47
2019-03-13T17:00:21.277Z,6.27
2019-03-13T17:02:51.296Z,3.83
2019-03-13T17:05:20.170Z,5.90
2019-03-13T17:07:50.125Z,4.37
2019-03-13T17:10:19.815Z,3.23
2019-03-13T17:12:48.991Z,4.17
2019-03-13T17:15:19.593Z,2.83
2019-03-13T17:17:48.522Z,2.55
2019-03-13T17:20:19.423Z,2.83
2019-03-13T17:22:49.476Z,1.70
2019-03-13T17:25:18.739Z,2.33
2019-03-13T17:27:48.782Z,1.17
2019-03-13T17:30:20.109Z,2.40
2019-03-13T17:32:49.054Z,1.77
2019-03-13T17:35:18.914Z,2.57
2019-03-13T17:37:48.143Z,1.70
2019-03-13T17:40:19.490Z,4.00
2019-03-13T17:42:49.407Z,3.27
2019-03-13T17:45:21.965Z,2.73
2019-03-13T17:47:53.047Z,2.73
2019-03-13T17:50:22.640Z,2.60
2019-03-13T17:52:52.364Z,2.03
2019-03-13T17:55:21.126Z,3.05
2019-03-13T17:57:50.006Z,2.50
2019-03-13T18:00:25.553Z,4.08
2019-03-13T18:02:54.633Z,4.00
2019-03-13T18:05:23.460Z,3.57
2019-03-13T18:07:52.275Z,7.53
2019-03-13T18:10:21.534Z,3.10
2019-03-13T18:12:50.520Z,5.47
2019-03-13T18:15:19.516Z,6.70
2019-03-13T18:17:48.430Z,5.63
2019-03-13T18:20:18.483Z,3.03
2019-03-13T18:22:47.316Z,4.03
2019-03-13T18:25:18.193Z,2.37
2019-03-13T18:27:55.141Z,3.83
2019-03-13T18:30:27.351Z,7.23
2019-03-13T18:32:58.142Z,3.50
2019-03-13T18:35:27.244Z,6.17
2019-03-13T18:37:56.052Z,3.47
2019-03-13T18:40:25.062Z,5.73
2019-03-13T18:42:53.988Z,5.93
2019-03-13T18:45:23.957Z,2.93
2019-03-13T18:47:54.292Z,2.20
2019-03-13T18:50:23.492Z,2.80
2019-03-13T18:53:11.480Z,1.87
2019-03-13T18:55:40.294Z,0.90
2019-03-13T18:58:09.158Z,0.80
2019-03-13T19:00:38.144Z,3.53
2019-03-13T19:03:07.794Z,0.93
2019-03-13T19:05:36.983Z,0.47
2019-03-13T19:08:06.284Z,0.43
2019-03-13T19:10:35.181Z,1.23
2019-03-13T19:13:04.843Z,1.67
2019-03-13T19:15:33.646Z,0.73
2019-03-13T19:18:02.537Z,1.07
2019-03-13T19:20:31.662Z,1.13
2019-03-13T19:23:00.748Z,0.27
2019-03-13T19:25:29.583Z,0.37
2019-03-13T19:27:58.438Z,0.53
2019-03-13T19:30:28.476Z,0.20
2019-03-13T19:32:57.378Z,0.28
2019-03-13T19:35:26.275Z,0.30
2019-03-13T19:37:55.568Z,0.27
2019-03-13T19:40:24.377Z,0.13
2019-03-13T19:42:53.241Z,0.10
2019-03-13T19:45:27.957Z,0.77
2019-03-13T19:47:57.040Z,1.10
2019-03-13T19:50:28.165Z,1.77
2019-03-13T19:52:56.496Z,1.03
2019-03-13T19:55:25.363Z,0.97
2019-03-13T19:57:54.226Z,0.30
2019-03-13T20:00:23.559Z,0.20
2019-03-13T20:02:59.845Z,0.43
2019-03-13T20:05:23.212Z,0.53
2019-03-13T20:07:52.284Z,0.37
2019-03-13T20:10:22.687Z,1.63
2019-03-13T20:12:52.259Z,1.90
2019-03-13T20:15:21.704Z,1.20
2019-03-13T20:17:50.540Z,0.30
2019-03-13T20:20:20.096Z,0.70
2019-03-13T20:22:50.545Z,2.60
2019-03-13T20:25:19.405Z,2.37
2019-03-13T20:27:48.155Z,1.50
2019-03-13T20:30:18.337Z,2.13
2019-03-13T20:32:47.147Z,2.50
2019-03-13T20:35:16.043Z,3.20
2019-03-13T20:37:44.920Z,2.50
2019-03-13T20:40:17.364Z,3.50
2019-03-13T20:42:46.609Z,2.07
2019-03-13T20:45:18.884Z,1.30
2019-03-13T20:47:47.694Z,4.33
2019-03-13T20:50:16.980Z,0.30
2019-03-13T20:52:45.984Z,1.90
2019-03-13T20:55:15.697Z,0.90
2019-03-13T20:57:44.525Z,0.60
2019-03-13T21:00:17.262Z,1.63
2019-03-13T21:02:46.007Z,2.25
2019-03-13T21:05:14.888Z,2.00
2019-03-13T21:07:43.632Z,3.75
2019-03-13T21:10:12.900Z,2.23
2019-03-13T21:12:41.706Z,4.57
2019-03-13T21:15:10.786Z,2.97
2019-03-13T21:17:40.004Z,4.83
2019-03-13T21:20:10.772Z,2.63
2019-03-13T21:22:39.583Z,5.00
2019-03-13T21:25:09.419Z,3.30
2019-03-13T21:27:38.817Z,2.23
2019-03-13T21:30:10.252Z,1.57
2019-03-13T21:32:38.992Z,1.47
2019-03-13T21:35:07.864Z,1.73
2019-03-13T21:37:36.615Z,4.53
2019-03-13T21:40:05.891Z,1.87
2019-03-13T21:42:34.627Z,1.90
2019-03-13T21:45:03.810Z,2.73
2019-03-13T21:47:32.564Z,1.97
2019-03-13T21:50:01.291Z,2.30
2019-03-13T21:52:30.031Z,3.08
2019-03-13T21:54:58.780Z,4.43
2019-03-13T21:57:27.516Z,1.87
2019-03-13T21:59:56.325Z,1.75
2019-03-13T22:02:32.591Z,3.50
2019-03-13T22:04:55.620Z,1.80
2019-03-13T22:07:25.428Z,2.30
2019-03-13T22:09:54.290Z,2.63
2019-03-13T22:12:28.181Z,3.03
2019-03-13T22:14:56.920Z,2.50
2019-03-13T22:17:27.158Z,3.60
2019-03-13T22:19:55.924Z,3.43
2019-03-13T22:22:25.082Z,3.17
2019-03-13T22:24:54.271Z,4.10
2019-03-13T22:27:23.066Z,3.57
2019-03-13T22:29:51.881Z,3.70
2019-03-13T22:32:20.783Z,3.57
2019-03-13T22:34:49.518Z,4.93
2019-03-13T22:37:18.914Z,5.43
2019-03-13T22:39:54.475Z,5.10
2019-03-13T22:42:23.528Z,2.00
2019-03-13T22:44:53.878Z,1.30
2019-03-13T22:47:27.225Z,1.80
2019-03-13T22:49:56.256Z,2.07
2019-03-13T22:52:25.303Z,1.83
2019-03-13T22:54:54.317Z,2.50
2019-03-13T22:57:23.228Z,2.93
2019-03-13T22:59:51.999Z,1.33
2019-03-13T23:02:23.631Z,3.15
2019-03-13T23:04:52.817Z,2.60
2019-03-13T23:07:21.927Z,1.50
2019-03-13T23:09:50.812Z,2.13
2019-03-13T23:12:19.973Z,1.95
2019-03-13T23:14:48.818Z,1.10
2019-03-13T23:17:17.570Z,3.67
2019-03-13T23:19:46.329Z,1.93
2019-03-13T23:22:15.210Z,2.07
2019-03-13T23:24:44.055Z,0.93
2019-03-13T23:27:12.982Z,0.70
2019-03-13T23:29:41.736Z,0.67
2019-03-13T23:32:10.484Z,1.87
2019-03-13T23:34:39.220Z,2.27
2019-03-13T23:37:08.515Z,1.43
2019-03-13T23:39:37.257Z,0.78
2019-03-13T23:42:06.012Z,1.43
2019-03-13T23:44:34.784Z,1.70
2019-03-13T23:47:03.523Z,1.50
2019-03-13T23:49:32.382Z,0.47
2019-03-13T23:52:02.936Z,1.23
2019-03-13T23:54:31.812Z,1.40
2019-03-13T23:57:00.612Z,1.60
2019-03-13T23:59:29.431Z,0.63
